createdAt,value
2018-07-30T00:01:33.350Z,57.01
2018-07-30T00:04:01.019Z,57.30
2018-07-30T00:06:28.670Z,57.28
2018-07-30T00:08:56.278Z,56.95
2018-07-30T00:11:23.962Z,56.58
2018-07-30T00:13:51.809Z,57.80
2018-07-30T00:16:19.505Z,58.22
2018-07-30T00:18:48.194Z,58.31
2018-07-30T00:21:15.819Z,57.97
2018-07-30T00:23:43.446Z,57.81
2018-07-30T00:26:11.079Z,58.74
2018-07-30T00:28:38.705Z,58.67
2018-07-30T00:31:06.347Z,58.51
2018-07-30T00:33:33.986Z,59.01
2018-07-30T00:36:01.588Z,59.60
2018-07-30T00:38:29.216Z,59.43
2018-07-30T00:40:56.836Z,59.63
2018-07-30T00:43:24.574Z,60.04
2018-07-30T00:45:52.200Z,60.37
2018-07-30T00:48:19.879Z,60.44
2018-07-30T00:50:47.450Z,60.39
2018-07-30T00:53:15.016Z,60.55
2018-07-30T00:55:42.650Z,59.74
2018-07-30T00:58:10.306Z,59.91
2018-07-30T01:00:37.930Z,60.65
2018-07-30T01:03:05.554Z,60.69
2018-07-30T01:05:33.214Z,60.77
2018-07-30T01:08:00.811Z,60.49
2018-07-30T01:10:28.502Z,60.60
2018-07-30T01:12:56.121Z,60.93
2018-07-30T01:15:23.795Z,61.00
2018-07-30T01:17:51.689Z,61.49
2018-07-30T01:20:19.391Z,61.71
2018-07-30T01:22:47.045Z,61.49
2018-07-30T01:25:14.670Z,60.72
2018-07-30T01:27:42.277Z,60.92
2018-07-30T01:30:09.948Z,61.50
2018-07-30T01:32:37.559Z,61.51
2018-07-30T01:35:05.189Z,62.24
2018-07-30T01:37:32.855Z,62.20
2018-07-30T01:40:00.532Z,62.04
2018-07-30T01:42:28.202Z,62.16
2018-07-30T01:44:55.885Z,61.99
2018-07-30T01:47:23.497Z,62.43
2018-07-30T01:49:51.113Z,62.11
2018-07-30T01:52:18.729Z,62.23
2018-07-30T01:54:46.353Z,62.04
2018-07-30T01:57:13.957Z,62.13
2018-07-30T01:59:41.658Z,62.35
2018-07-30T02:02:09.262Z,62.43
2018-07-30T02:04:36.882Z,62.27
2018-07-30T02:07:04.558Z,62.09
2018-07-30T02:09:32.178Z,61.88
2018-07-30T02:11:59.835Z,62.00
2018-07-30T02:14:27.494Z,61.50
2018-07-30T02:16:55.178Z,61.85
2018-07-30T02:19:22.802Z,61.87
2018-07-30T02:21:50.421Z,61.61
2018-07-30T02:24:18.066Z,62.10
2018-07-30T02:26:45.701Z,62.32
2018-07-30T02:29:13.334Z,62.00
2018-07-30T02:31:40.982Z,61.66
2018-07-30T02:34:09.064Z,61.96
2018-07-30T02:36:36.690Z,62.65
2018-07-30T02:39:06.763Z,63.14
2018-07-30T02:41:34.398Z,63.83
2018-07-30T02:44:02.055Z,63.74
2018-07-30T02:46:29.682Z,63.87
2018-07-30T02:48:57.327Z,64.64
2018-07-30T02:51:24.953Z,64.43
2018-07-30T02:53:52.604Z,64.34
2018-07-30T02:56:20.250Z,64.60
2018-07-30T02:58:47.868Z,64.84
2018-07-30T03:01:15.509Z,64.34
2018-07-30T03:03:43.158Z,64.72
2018-07-30T03:06:10.795Z,64.91
2018-07-30T03:08:38.445Z,65.25
2018-07-30T03:11:06.054Z,65.14
2018-07-30T03:13:34.050Z,65.27
2018-07-30T03:16:01.699Z,64.80
2018-07-30T03:18:29.391Z,65.23
2018-07-30T03:20:57.017Z,65.79
2018-07-30T03:23:24.650Z,65.61
2018-07-30T03:25:52.255Z,65.75
2018-07-30T03:28:19.909Z,65.49
2018-07-30T03:30:47.538Z,66.01
2018-07-30T03:33:15.174Z,65.48
2018-07-30T03:35:42.805Z,65.05
2018-07-30T03:38:10.449Z,65.40
2018-07-30T03:40:38.113Z,65.54
2018-07-30T03:43:05.774Z,65.92
2018-07-30T03:45:33.387Z,65.95
2018-07-30T03:48:01.077Z,65.21
2018-07-30T03:50:28.705Z,66.18
2018-07-30T03:52:56.322Z,66.11
2018-07-30T03:55:24.012Z,66.61
2018-07-30T03:57:51.608Z,66.62
2018-07-30T04:00:19.256Z,67.03
2018-07-30T04:02:46.882Z,66.58
2018-07-30T04:05:14.501Z,66.21
2018-07-30T04:07:42.134Z,66.86
2018-07-30T04:10:10.200Z,66.46
2018-07-30T04:12:38.086Z,66.41
2018-07-30T04:15:06.881Z,66.87
2018-07-30T04:17:34.510Z,66.70
2018-07-30T04:20:02.167Z,66.77
2018-07-30T04:22:29.778Z,67.03
2018-07-30T04:24:57.422Z,66.13
2018-07-30T04:27:25.027Z,65.60
2018-07-30T04:29:52.664Z,65.20
2018-07-30T04:32:20.299Z,65.10
2018-07-30T04:34:47.939Z,64.68
2018-07-30T04:37:15.543Z,63.99
2018-07-30T04:39:43.181Z,63.56
2018-07-30T04:42:10.842Z,64.14
2018-07-30T04:44:38.485Z,63.22
2018-07-30T04:47:06.186Z,62.84
2018-07-30T04:49:33.741Z,62.60
2018-07-30T04:52:01.335Z,62.48
2018-07-30T04:54:28.944Z,62.40
2018-07-30T04:56:56.572Z,61.42
2018-07-30T04:59:24.098Z,60.64
2018-07-30T05:01:51.673Z,60.18
2018-07-30T05:04:19.266Z,58.80
2018-07-30T05:06:46.864Z,58.15
2018-07-30T05:09:14.447Z,57.70
2018-07-30T05:11:42.011Z,57.08
2018-07-30T05:14:09.615Z,57.36
2018-07-30T05:16:37.210Z,56.79
2018-07-30T05:19:04.903Z,56.43
2018-07-30T05:21:34.302Z,56.98
2018-07-30T05:24:01.904Z,56.62
2018-07-30T05:26:30.103Z,56.71
2018-07-30T05:28:57.719Z,56.47
2018-07-30T05:31:25.334Z,56.01
2018-07-30T05:33:52.967Z,55.73
2018-07-30T05:36:20.566Z,54.59
2018-07-30T05:38:48.201Z,54.08
2018-07-30T05:41:15.789Z,54.06
2018-07-30T05:43:43.714Z,52.89
2018-07-30T05:46:11.382Z,52.41
2018-07-30T05:48:39.066Z,52.74
2018-07-30T05:51:07.814Z,51.74
2018-07-30T05:53:35.475Z,51.09
2018-07-30T05:56:03.246Z,50.23
2018-07-30T05:58:30.886Z,49.38
2018-07-30T06:00:58.818Z,49.74
2018-07-30T06:03:26.470Z,49.38
2018-07-30T06:05:54.110Z,50.78
2018-07-30T06:08:21.753Z,50.41
2018-07-30T06:10:49.394Z,50.75
2018-07-30T06:13:17.093Z,50.01
2018-07-30T06:15:44.727Z,48.24
2018-07-30T06:18:12.365Z,47.21
2018-07-30T06:20:40.082Z,46.83
2018-07-30T06:23:07.709Z,44.69
2018-07-30T06:25:35.360Z,43.87
2018-07-30T06:28:02.998Z,42.15
2018-07-30T06:30:30.655Z,41.91
2018-07-30T06:32:58.345Z,41.21
2018-07-30T06:35:25.970Z,40.65
2018-07-30T06:37:53.578Z,40.32
2018-07-30T06:40:21.221Z,39.74
2018-07-30T06:42:48.870Z,39.96
2018-07-30T06:45:16.527Z,39.74
2018-07-30T06:47:44.177Z,38.72
2018-07-30T06:50:11.814Z,38.80
2018-07-30T06:52:39.454Z,39.67
2018-07-30T06:55:07.809Z,38.60
2018-07-30T06:57:35.526Z,37.64
2018-07-30T07:00:04.225Z,37.50
2018-07-30T07:02:31.812Z,37.69
2018-07-30T07:04:59.514Z,35.03
2018-07-30T07:07:27.113Z,34.85
2018-07-30T07:09:54.823Z,33.31
2018-07-30T07:12:22.579Z,33.53
2018-07-30T07:14:50.248Z,33.02
2018-07-30T07:17:17.998Z,32.21
2018-07-30T07:19:45.675Z,31.44
2018-07-30T07:22:13.373Z,30.17
2018-07-30T07:24:41.034Z,29.72
2018-07-30T07:27:08.659Z,30.27
2018-07-30T07:29:36.309Z,28.71
2018-07-30T07:32:04.056Z,28.74
2018-07-30T07:34:31.754Z,27.42
2018-07-30T07:36:59.471Z,26.29
2018-07-30T07:39:27.146Z,26.30
2018-07-30T07:41:54.799Z,26.26
2018-07-30T07:44:22.565Z,25.22
2018-07-30T07:46:50.222Z,23.86
2018-07-30T07:49:17.878Z,24.09
2018-07-30T07:51:45.560Z,24.38
2018-07-30T07:54:13.254Z,22.17
2018-07-30T07:56:40.850Z,23.43
2018-07-30T07:59:08.591Z,22.62
2018-07-30T08:01:36.174Z,21.78
2018-07-30T08:04:03.851Z,20.73
2018-07-30T08:06:31.492Z,20.40
2018-07-30T08:08:59.091Z,19.98
2018-07-30T08:11:26.738Z,20.29
2018-07-30T08:13:54.401Z,19.96
2018-07-30T08:16:22.015Z,19.72
2018-07-30T08:18:49.640Z,19.01
2018-07-30T08:21:17.364Z,18.43
2018-07-30T08:23:44.970Z,18.00
2018-07-30T08:26:12.594Z,17.45
2018-07-30T08:28:40.163Z,17.48
2018-07-30T08:31:07.826Z,16.43
2018-07-30T08:33:35.553Z,15.34
2018-07-30T08:36:03.311Z,15.47
2018-07-30T08:38:30.870Z,14.96
2018-07-30T08:40:58.651Z,15.26
2018-07-30T08:43:26.346Z,15.03
2018-07-30T08:45:54.086Z,14.92
2018-07-30T08:48:21.727Z,15.02
2018-07-30T08:50:49.302Z,15.47
2018-07-30T08:53:17.030Z,16.34
2018-07-30T08:55:44.810Z,15.07
2018-07-30T08:58:12.517Z,15.87
2018-07-30T09:00:40.211Z,15.79
2018-07-30T09:03:07.915Z,14.98
2018-07-30T09:05:35.534Z,15.70
2018-07-30T09:08:03.133Z,15.43
2018-07-30T09:10:30.761Z,15.03
2018-07-30T09:12:58.386Z,13.66
2018-07-30T09:15:26.042Z,14.24
2018-07-30T09:17:53.646Z,13.77
2018-07-30T09:20:21.916Z,13.50
2018-07-30T09:22:49.523Z,12.66
2018-07-30T09:25:17.158Z,13.23
2018-07-30T09:27:44.871Z,13.81
2018-07-30T09:30:12.491Z,14.44
2018-07-30T09:32:40.137Z,13.88
2018-07-30T09:35:07.803Z,12.78
2018-07-30T09:37:35.516Z,12.56
2018-07-30T09:40:03.171Z,12.24
2018-07-30T09:42:30.761Z,11.99
2018-07-30T09:44:58.511Z,11.30
2018-07-30T09:47:26.107Z,11.03
2018-07-30T09:49:53.719Z,11.20
2018-07-30T09:52:21.309Z,11.62
2018-07-30T09:54:48.967Z,12.04
2018-07-30T09:57:16.529Z,12.24
2018-07-30T09:59:44.153Z,11.62
2018-07-30T10:02:11.776Z,11.20
2018-07-30T10:04:42.866Z,11.07
2018-07-30T10:07:10.727Z,11.79
2018-07-30T10:09:38.843Z,12.13
2018-07-30T10:12:06.495Z,12.49
2018-07-30T10:14:34.157Z,11.86
2018-07-30T10:17:01.808Z,12.53
2018-07-30T10:19:29.410Z,12.07
2018-07-30T10:21:57.022Z,11.93
2018-07-30T10:24:24.714Z,12.94
2018-07-30T10:26:52.326Z,13.91
2018-07-30T10:29:19.996Z,14.83
2018-07-30T10:31:47.619Z,15.10
2018-07-30T10:34:15.273Z,15.06
2018-07-30T10:36:42.923Z,14.93
2018-07-30T10:39:10.542Z,14.33
2018-07-30T10:41:38.758Z,12.87
2018-07-30T10:44:06.460Z,13.77
2018-07-30T10:46:34.113Z,13.20
2018-07-30T10:49:01.756Z,13.31
2018-07-30T10:51:29.413Z,13.41
2018-07-30T10:53:57.053Z,13.86
2018-07-30T10:56:24.722Z,13.47
2018-07-30T10:58:53.127Z,13.46
2018-07-30T11:01:20.835Z,12.54
2018-07-30T11:03:48.563Z,13.46
2018-07-30T11:06:16.242Z,12.47
2018-07-30T11:08:43.899Z,13.15
2018-07-30T11:11:11.556Z,13.48
2018-07-30T11:13:39.184Z,13.74
2018-07-30T11:16:06.801Z,13.00
2018-07-30T11:18:34.585Z,12.86
2018-07-30T11:21:02.275Z,13.62
2018-07-30T11:23:29.903Z,14.42
2018-07-30T11:25:58.134Z,15.29
2018-07-30T11:28:25.789Z,15.20
2018-07-30T11:30:53.429Z,14.14
2018-07-30T11:33:21.151Z,14.77
2018-07-30T11:35:48.766Z,13.78
2018-07-30T11:38:16.394Z,14.90
2018-07-30T11:40:44.401Z,14.97
2018-07-30T11:43:12.068Z,15.95
2018-07-30T11:45:39.739Z,16.45
2018-07-30T11:48:07.379Z,16.68
2018-07-30T11:50:35.048Z,16.33
2018-07-30T11:53:02.705Z,16.31
2018-07-30T11:55:30.361Z,17.87
2018-07-30T11:57:58.209Z,17.49
2018-07-30T12:00:25.843Z,16.79
2018-07-30T12:02:53.751Z,17.77
2018-07-30T12:05:21.431Z,19.02
2018-07-30T12:07:49.039Z,18.88
2018-07-30T12:10:16.709Z,18.37
2018-07-30T12:12:44.353Z,18.27
2018-07-30T12:15:12.006Z,17.30
2018-07-30T12:17:39.649Z,17.73
2018-07-30T12:20:07.362Z,19.20
2018-07-30T12:22:35.029Z,19.08
2018-07-30T12:25:02.764Z,20.08
2018-07-30T12:27:30.426Z,19.20
2018-07-30T12:29:58.140Z,18.64
2018-07-30T12:32:25.748Z,18.74
2018-07-30T12:34:53.399Z,18.80
2018-07-30T12:37:21.362Z,19.25
2018-07-30T12:39:49.020Z,18.64
2018-07-30T12:42:16.654Z,19.00
2018-07-30T12:44:44.371Z,18.56
2018-07-30T12:47:12.701Z,18.65
2018-07-30T12:49:40.686Z,19.08
2018-07-30T12:52:08.323Z,20.38
2018-07-30T12:54:35.969Z,19.15
2018-07-30T12:57:03.918Z,20.23
2018-07-30T12:59:31.595Z,20.72
2018-07-30T13:01:59.230Z,20.91
2018-07-30T13:04:26.865Z,20.60
2018-07-30T13:06:54.574Z,21.32
2018-07-30T13:09:22.221Z,20.79
2018-07-30T13:11:49.853Z,21.27
2018-07-30T13:14:17.530Z,21.74
2018-07-30T13:16:45.242Z,22.37
2018-07-30T13:19:12.849Z,21.69
2018-07-30T13:21:40.509Z,22.41
2018-07-30T13:24:08.158Z,21.99
2018-07-30T13:26:35.939Z,21.29
2018-07-30T13:29:03.591Z,21.40
2018-07-30T13:31:31.306Z,21.86
2018-07-30T13:33:58.981Z,21.65
2018-07-30T13:36:26.660Z,21.84
2018-07-30T13:38:54.299Z,21.59
2018-07-30T13:41:21.991Z,20.92
2018-07-30T13:43:49.945Z,21.12
2018-07-30T13:46:17.632Z,22.59
2018-07-30T13:48:45.278Z,21.29
2018-07-30T13:51:12.930Z,21.91
2018-07-30T13:53:40.624Z,20.32
2018-07-30T13:56:08.255Z,20.09
2018-07-30T13:58:35.909Z,20.41
2018-07-30T14:01:03.598Z,21.75
2018-07-30T14:03:31.310Z,21.80
2018-07-30T14:05:58.974Z,22.11
2018-07-30T14:08:26.654Z,21.61
2018-07-30T14:10:54.319Z,22.42
2018-07-30T14:13:21.989Z,22.82
2018-07-30T14:15:50.710Z,23.62
2018-07-30T14:18:18.388Z,21.76
2018-07-30T14:20:46.050Z,22.82
2018-07-30T14:23:13.671Z,23.28
2018-07-30T14:25:41.319Z,23.20
2018-07-30T14:28:08.965Z,23.17
2018-07-30T14:30:36.644Z,23.78
2018-07-30T14:33:04.330Z,23.70
2018-07-30T14:35:32.595Z,22.82
2018-07-30T14:38:01.160Z,22.61
2018-07-30T14:40:28.785Z,23.68
2018-07-30T14:42:56.531Z,22.66
2018-07-30T14:45:24.266Z,22.53
2018-07-30T14:47:52.018Z,23.16
2018-07-30T14:50:19.684Z,22.25
2018-07-30T14:52:47.408Z,22.30
2018-07-30T14:55:15.146Z,21.59
2018-07-30T14:57:42.886Z,21.65
2018-07-30T15:00:10.621Z,22.00
2018-07-30T15:02:38.307Z,20.28
2018-07-30T15:05:06.248Z,21.10
2018-07-30T15:07:34.002Z,21.17
2018-07-30T15:10:01.707Z,21.59
2018-07-30T15:12:29.472Z,20.61
2018-07-30T15:14:57.192Z,20.06
2018-07-30T15:17:24.886Z,19.87
2018-07-30T15:19:52.591Z,19.24
2018-07-30T15:22:20.355Z,18.11
2018-07-30T15:24:48.047Z,18.59
2018-07-30T15:27:15.785Z,17.56
2018-07-30T15:29:45.306Z,17.64
2018-07-30T15:32:13.075Z,17.88
2018-07-30T15:34:40.802Z,17.99
2018-07-30T15:37:08.494Z,18.30
2018-07-30T15:39:36.226Z,18.49
2018-07-30T15:42:04.825Z,19.18
2018-07-30T15:44:32.522Z,17.92
2018-07-30T15:47:00.275Z,17.31
2018-07-30T15:49:27.996Z,17.96
2018-07-30T15:51:55.724Z,17.77
2018-07-30T15:54:23.411Z,18.06
2018-07-30T15:56:51.164Z,19.32
2018-07-30T15:59:18.839Z,20.31
2018-07-30T16:01:46.569Z,21.06
2018-07-30T16:04:14.281Z,20.69
2018-07-30T16:06:41.925Z,21.56
2018-07-30T16:09:09.611Z,20.64
2018-07-30T16:11:37.699Z,20.10
2018-07-30T16:14:05.498Z,20.60
2018-07-30T16:16:33.238Z,19.50
2018-07-30T16:19:01.286Z,19.60
2018-07-30T16:21:28.985Z,19.88
2018-07-30T16:23:56.739Z,19.47
2018-07-30T16:26:24.483Z,19.03
2018-07-30T16:28:52.159Z,20.91
2018-07-30T16:31:20.154Z,20.03
2018-07-30T16:33:47.907Z,20.87
2018-07-30T16:36:15.688Z,20.18
2018-07-30T16:38:43.510Z,20.37
2018-07-30T16:41:11.322Z,20.62
2018-07-30T16:43:39.093Z,21.14
2018-07-30T16:46:06.806Z,21.27
2018-07-30T16:48:34.509Z,21.24
2018-07-30T16:51:02.257Z,21.72
2018-07-30T16:53:29.923Z,21.58
2018-07-30T16:55:57.598Z,21.31
2018-07-30T16:58:26.236Z,21.50
2018-07-30T17:00:53.958Z,22.08
2018-07-30T17:03:21.649Z,21.84
2018-07-30T17:05:49.413Z,21.95
2018-07-30T17:08:17.226Z,21.85
2018-07-30T17:10:44.900Z,22.17
2018-07-30T17:13:12.647Z,22.84
2018-07-30T17:15:40.372Z,22.45
2018-07-30T17:18:08.101Z,22.27
2018-07-30T17:20:36.118Z,21.20
2018-07-30T17:23:03.966Z,21.79
2018-07-30T17:25:32.351Z,23.09
2018-07-30T17:28:01.193Z,23.65
2018-07-30T17:30:29.124Z,23.26
2018-07-30T17:32:57.095Z,24.03
2018-07-30T17:35:24.885Z,23.68
2018-07-30T17:37:53.394Z,24.24
2018-07-30T17:40:21.373Z,24.12
2018-07-30T17:42:49.381Z,24.27
2018-07-30T17:45:17.133Z,23.91
2018-07-30T17:47:45.401Z,24.63
2018-07-30T17:50:13.136Z,24.43
2018-07-30T17:52:41.570Z,24.58
2018-07-30T17:55:09.611Z,25.40
2018-07-30T17:57:37.704Z,25.46
2018-07-30T18:00:06.224Z,25.37
2018-07-30T18:02:34.086Z,25.97
2018-07-30T18:05:01.841Z,26.58
2018-07-30T18:07:29.553Z,26.74
2018-07-30T18:09:57.382Z,26.91
2018-07-30T18:12:25.115Z,27.39
2018-07-30T18:14:52.855Z,27.14
2018-07-30T18:17:20.526Z,27.11
2018-07-30T18:19:48.301Z,27.70
2018-07-30T18:22:16.967Z,28.09
2018-07-30T18:24:44.785Z,28.43
2018-07-30T18:27:12.516Z,29.29
2018-07-30T18:29:40.212Z,29.99
2018-07-30T18:32:08.009Z,29.91
2018-07-30T18:34:36.728Z,30.20
2018-07-30T18:37:04.497Z,30.10
2018-07-30T18:39:32.284Z,30.85
2018-07-30T18:42:00.039Z,30.35
2018-07-30T18:44:27.744Z,31.07
2018-07-30T18:46:55.480Z,31.31
2018-07-30T18:49:23.281Z,31.05
2018-07-30T18:51:51.559Z,31.29
2018-07-30T18:54:19.290Z,31.92
2018-07-30T18:56:47.020Z,32.01
2018-07-30T18:59:14.786Z,31.56
2018-07-30T19:01:42.526Z,31.84
2018-07-30T19:04:10.282Z,31.95
2018-07-30T19:06:38.076Z,32.08
2018-07-30T19:09:06.415Z,31.71
2018-07-30T19:11:35.045Z,32.05
2018-07-30T19:14:03.081Z,32.98
2018-07-30T19:16:30.830Z,32.94
2018-07-30T19:18:58.563Z,33.36
2018-07-30T19:21:26.515Z,33.47
2018-07-30T19:23:54.248Z,33.63
2018-07-30T19:26:22.266Z,32.93
2018-07-30T19:28:50.047Z,33.34
2018-07-30T19:31:17.790Z,34.18
2018-07-30T19:33:45.853Z,33.45
2018-07-30T19:36:13.852Z,33.49
2018-07-30T19:38:41.658Z,34.07
2018-07-30T19:41:10.000Z,34.90
2018-07-30T19:43:37.710Z,34.38
2018-07-30T19:46:05.481Z,34.93
2018-07-30T19:48:33.181Z,34.89
2018-07-30T19:51:01.939Z,35.36
2018-07-30T19:53:29.923Z,35.30
2018-07-30T19:55:57.960Z,36.13
2018-07-30T19:58:26.117Z,36.40
2018-07-30T20:00:53.558Z,36.96
2018-07-30T20:03:22.603Z,38.08
